Paloma, Illinois
Current Conditions -  °F | °C
As of 9:03 PM on Sunday 23 Nov 2014 (Local Time) from KUIN Reporting Station
Light Rain Light Rain  
Wind Chill: 51°   Ceiling: 300
Heat Index: 51°   Visibility: 0.5mi
Dew Point: 50°   Wind: 5mph
Humidity: 96%   Direction: 230°SW
Pressure: 29.23"   Gusts: NA
Location:  40.02°N, 91.19°W
Report Text: KUIN 240303Z AUTO 23004KT 1/2SM -RA FG VV003 11/10 A2923 RMK AO2 P0002 T01060100
Loading
Personal Weather Stations






























Interactive Weather Map New forecast layout! Learn more

10-Day Weather Forecast

Advertisements
Track Severe Weather on mobile